createdAt,value
2018-05-23T00:02:04.088Z,4.50
2018-05-23T00:04:31.615Z,4.80
2018-05-23T00:06:59.156Z,5.17
2018-05-23T00:09:26.828Z,4.90
2018-05-23T00:11:54.418Z,5.37
2018-05-23T00:14:21.920Z,4.87
2018-05-23T00:16:49.405Z,5.60
2018-05-23T00:19:17.073Z,5.37
2018-05-23T00:21:44.617Z,5.37
2018-05-23T00:24:12.125Z,5.13
2018-05-23T00:26:39.602Z,4.60
2018-05-23T00:29:07.840Z,4.70
2018-05-23T00:31:35.324Z,5.27
2018-05-23T00:34:02.796Z,4.47
2018-05-23T00:36:30.354Z,4.83
2018-05-23T00:38:57.996Z,4.73
2018-05-23T00:41:25.607Z,5.27
2018-05-23T00:43:54.069Z,4.87
2018-05-23T00:46:21.672Z,5.70
2018-05-23T00:48:49.151Z,4.97
2018-05-23T00:51:16.719Z,5.00
2018-05-23T00:53:44.249Z,4.50
2018-05-23T00:56:11.801Z,5.30
2018-05-23T00:58:39.276Z,4.93
2018-05-23T01:01:06.813Z,5.40
2018-05-23T01:03:34.952Z,4.97
2018-05-23T01:06:02.428Z,5.30
2018-05-23T01:08:29.914Z,5.43
2018-05-23T01:10:57.584Z,5.37
2018-05-23T01:13:25.244Z,5.90
2018-05-23T01:15:52.795Z,5.90
2018-05-23T01:18:20.452Z,5.17
2018-05-23T01:20:47.940Z,4.80
2018-05-23T01:23:15.430Z,5.43
2018-05-23T01:25:42.916Z,4.90
2018-05-23T01:28:10.394Z,5.33
2018-05-23T01:30:37.872Z,5.63
2018-05-23T01:33:05.352Z,6.17
2018-05-23T01:35:32.820Z,6.53
2018-05-23T01:38:00.379Z,5.33
2018-05-23T01:40:28.807Z,5.70
2018-05-23T01:42:56.478Z,5.40
2018-05-23T01:45:24.135Z,5.40
2018-05-23T01:47:52.440Z,5.77
2018-05-23T01:50:19.911Z,5.63
2018-05-23T01:52:47.424Z,5.80
2018-05-23T01:55:14.935Z,6.03
2018-05-23T01:57:43.189Z,5.53
2018-05-23T02:00:10.687Z,5.33
2018-05-23T02:02:38.967Z,5.50
2018-05-23T02:05:06.440Z,5.17
2018-05-23T02:07:33.923Z,5.00
2018-05-23T02:10:01.419Z,5.43
2018-05-23T02:12:28.995Z,6.30
2018-05-23T02:14:56.615Z,5.37
2018-05-23T02:17:24.269Z,6.30
2018-05-23T02:19:51.771Z,6.13
2018-05-23T02:22:19.257Z,5.70
2018-05-23T02:24:47.644Z,5.90
2018-05-23T02:27:15.149Z,5.43
2018-05-23T02:29:43.389Z,5.57
2018-05-23T02:32:10.979Z,5.40
2018-05-23T02:34:39.219Z,5.43
2018-05-23T02:37:06.708Z,4.80
2018-05-23T02:39:34.179Z,5.67
2018-05-23T02:42:01.709Z,5.67
2018-05-23T02:44:29.207Z,5.33
2018-05-23T02:46:56.852Z,5.77
2018-05-23T02:49:25.260Z,5.43
2018-05-23T02:51:52.847Z,6.77
2018-05-23T02:54:20.392Z,5.97
2018-05-23T02:56:48.640Z,6.60
2018-05-23T02:59:16.139Z,6.13
2018-05-23T03:01:43.619Z,6.03
2018-05-23T03:04:11.103Z,6.47
2018-05-23T03:06:38.575Z,6.40
2018-05-23T03:09:06.051Z,7.30
2018-05-23T03:11:33.532Z,7.23
2018-05-23T03:14:01.038Z,6.90
2018-05-23T03:16:28.603Z,7.93
2018-05-23T03:18:56.270Z,6.60
2018-05-23T03:21:23.919Z,6.87
2018-05-23T03:23:52.173Z,6.83
2018-05-23T03:26:19.644Z,6.77
2018-05-23T03:28:47.176Z,7.27
2018-05-23T03:31:14.689Z,7.57
2018-05-23T03:33:42.936Z,7.50
2018-05-23T03:36:11.183Z,7.47
2018-05-23T03:38:38.664Z,7.27
2018-05-23T03:41:06.179Z,8.33
2018-05-23T03:43:33.695Z,8.43
2018-05-23T03:46:01.279Z,8.83
2018-05-23T03:48:28.780Z,8.03
2018-05-23T03:50:56.464Z,7.97
2018-05-23T03:53:24.039Z,8.33
2018-05-23T03:55:51.531Z,7.93
2018-05-23T03:58:19.016Z,7.47
2018-05-23T04:00:59.118Z,7.80
2018-05-23T04:03:39.311Z,7.13
2018-05-23T04:06:18.647Z,7.47
2018-05-23T04:08:46.164Z,7.70
2018-05-23T04:11:14.506Z,7.53
2018-05-23T04:13:41.988Z,7.33
2018-05-23T04:16:09.525Z,7.60
2018-05-23T04:18:36.968Z,7.57
2018-05-23T04:21:07.904Z,7.53
2018-05-23T04:23:36.152Z,7.33
2018-05-23T04:26:03.627Z,7.30
2018-05-23T04:28:31.159Z,7.40
2018-05-23T04:30:58.724Z,7.00
2018-05-23T04:33:26.493Z,7.67
2018-05-23T04:35:54.479Z,6.87
2018-05-23T04:38:21.976Z,7.97
2018-05-23T04:40:50.247Z,7.60
2018-05-23T04:43:17.743Z,7.47
2018-05-23T04:45:45.251Z,7.00
2018-05-23T04:48:18.675Z,7.27
2018-05-23T04:50:46.956Z,6.80
2018-05-23T04:53:15.219Z,6.60
2018-05-23T04:55:42.688Z,6.53
2018-05-23T04:58:10.236Z,6.80
2018-05-23T05:00:37.643Z,7.20
2018-05-23T05:03:05.892Z,6.63
2018-05-23T05:05:33.371Z,6.67
2018-05-23T05:08:01.620Z,6.53
2018-05-23T05:10:29.170Z,7.00
2018-05-23T05:12:56.732Z,7.17
2018-05-23T05:15:25.284Z,6.30
2018-05-23T05:17:52.766Z,6.40
2018-05-23T05:20:20.247Z,6.47
2018-05-23T05:22:48.479Z,6.40
2018-05-23T05:25:16.773Z,6.30
2018-05-23T05:27:44.264Z,6.37
2018-05-23T05:30:11.753Z,6.10
2018-05-23T05:32:39.215Z,6.10
2018-05-23T05:35:07.472Z,6.17
2018-05-23T05:37:34.963Z,5.70
2018-05-23T05:40:02.448Z,5.83
2018-05-23T05:42:29.938Z,7.00
2018-05-23T05:44:58.358Z,6.20
2018-05-23T05:47:26.292Z,6.77
2018-05-23T05:49:54.736Z,6.87
2018-05-23T05:52:22.247Z,6.10
2018-05-23T05:54:49.742Z,6.57
2018-05-23T05:57:17.203Z,5.77
2018-05-23T05:59:48.979Z,5.70
2018-05-23T06:02:17.220Z,5.87
2018-05-23T06:04:45.480Z,5.80
2018-05-23T06:07:12.975Z,5.83
2018-05-23T06:09:40.617Z,6.13
2018-05-23T06:12:07.947Z,5.93
2018-05-23T06:14:35.431Z,5.73
2018-05-23T06:17:02.912Z,5.70
2018-05-23T06:19:30.451Z,5.57
2018-05-23T06:21:58.750Z,5.93
2018-05-23T06:24:26.322Z,6.07
2018-05-23T06:26:54.069Z,5.83
2018-05-23T06:29:21.551Z,6.00
2018-05-23T06:31:49.032Z,5.13
2018-05-23T06:34:16.594Z,6.40
2018-05-23T06:36:44.068Z,6.23
2018-05-23T06:39:11.551Z,5.40
2018-05-23T06:41:39.024Z,6.07
2018-05-23T06:44:06.508Z,5.73
2018-05-23T06:46:33.980Z,6.63
2018-05-23T06:49:01.459Z,5.67
2018-05-23T06:51:28.979Z,5.60
2018-05-23T06:53:57.273Z,5.47
2018-05-23T06:56:25.541Z,4.17
2018-05-23T06:58:54.048Z,5.30
2018-05-23T07:01:21.520Z,4.90
2018-05-23T07:03:49.003Z,4.53
2018-05-23T07:06:16.482Z,4.50
2018-05-23T07:08:43.983Z,4.73
2018-05-23T07:11:11.563Z,4.67
2018-05-23T07:13:38.972Z,5.40
2018-05-23T07:16:06.456Z,4.90
2018-05-23T07:18:33.927Z,4.50
2018-05-23T07:21:01.492Z,4.57
2018-05-23T07:23:29.087Z,5.00
2018-05-23T07:25:56.621Z,4.87
2018-05-23T07:28:24.196Z,4.73
2018-05-23T07:30:51.687Z,5.13
2018-05-23T07:33:19.160Z,4.70
2018-05-23T07:35:46.640Z,4.53
2018-05-23T07:38:14.131Z,4.67
2018-05-23T07:40:41.611Z,5.07
2018-05-23T07:43:09.087Z,5.00
2018-05-23T07:45:36.586Z,5.10
2018-05-23T07:48:04.055Z,5.37
2018-05-23T07:50:31.547Z,4.97
2018-05-23T07:52:59.071Z,5.43
2018-05-23T07:55:26.574Z,5.10
2018-05-23T07:57:54.161Z,5.30
2018-05-23T08:00:22.503Z,5.67
2018-05-23T08:02:49.975Z,5.60
2018-05-23T08:05:17.460Z,5.33
2018-05-23T08:07:45.724Z,4.90
2018-05-23T08:10:14.046Z,4.73
2018-05-23T08:12:41.511Z,5.00
2018-05-23T08:15:09.075Z,5.30
2018-05-23T08:17:36.616Z,5.77
2018-05-23T08:20:04.900Z,4.20
2018-05-23T08:22:33.219Z,4.53
2018-05-23T08:25:01.588Z,4.70
2018-05-23T08:27:29.115Z,4.17
2018-05-23T08:29:56.770Z,4.17
2018-05-23T08:32:24.330Z,3.73
2018-05-23T08:34:52.092Z,4.00
2018-05-23T08:37:19.675Z,5.13
2018-05-23T08:39:47.203Z,4.90
2018-05-23T08:42:14.740Z,4.37
2018-05-23T08:44:42.251Z,4.10
2018-05-23T08:47:10.923Z,4.07
2018-05-23T08:49:38.406Z,3.70
2018-05-23T08:52:05.876Z,3.80
2018-05-23T08:54:33.378Z,4.20
2018-05-23T08:57:00.859Z,4.17
2018-05-23T08:59:28.554Z,4.30
2018-05-23T09:01:57.166Z,3.70
2018-05-23T09:04:25.007Z,4.57
2018-05-23T09:06:52.665Z,3.97
2018-05-23T09:09:20.152Z,4.90
2018-05-23T09:11:47.630Z,5.10
2018-05-23T09:14:15.111Z,3.70
2018-05-23T09:16:42.608Z,4.83
2018-05-23T09:19:10.084Z,4.77
2018-05-23T09:21:37.579Z,4.83
2018-05-23T09:24:05.044Z,5.33
2018-05-23T09:26:38.428Z,5.50
2018-05-23T09:29:06.664Z,5.00
2018-05-23T09:31:34.182Z,4.83
2018-05-23T09:34:01.663Z,5.60
2018-05-23T09:36:29.185Z,5.43
2018-05-23T09:38:56.764Z,5.67
2018-05-23T09:41:24.377Z,4.87
2018-05-23T09:43:51.890Z,5.10
2018-05-23T09:46:19.389Z,6.10
2018-05-23T09:48:46.862Z,4.90
2018-05-23T09:51:14.339Z,4.73
2018-05-23T09:53:41.825Z,4.93
2018-05-23T09:56:09.299Z,5.07
2018-05-23T09:58:36.807Z,4.73
2018-05-23T10:01:04.328Z,4.87
2018-05-23T10:03:31.827Z,5.40
2018-05-23T10:05:59.434Z,5.20
2018-05-23T10:08:26.987Z,5.47
2018-05-23T10:10:55.308Z,4.57
2018-05-23T10:13:22.845Z,5.20
2018-05-23T10:15:50.332Z,4.23
2018-05-23T10:18:17.807Z,4.77
2018-05-23T10:20:45.324Z,5.07
2018-05-23T10:23:12.820Z,5.00
2018-05-23T10:25:40.308Z,4.67
2018-05-23T10:28:14.356Z,3.80
2018-05-23T10:30:41.839Z,3.93
2018-05-23T10:33:09.315Z,4.40
2018-05-23T10:35:36.799Z,4.10
2018-05-23T10:38:04.318Z,4.23
2018-05-23T10:40:31.860Z,3.37
2018-05-23T10:42:59.391Z,3.87
2018-05-23T10:45:27.023Z,4.37
2018-05-23T10:47:54.617Z,5.23
2018-05-23T10:50:22.562Z,4.90
2018-05-23T10:52:50.116Z,4.80
2018-05-23T10:55:17.600Z,5.20
2018-05-23T10:57:45.075Z,4.93
2018-05-23T11:00:12.600Z,4.77
2018-05-23T11:02:40.095Z,3.83
2018-05-23T11:05:07.574Z,3.60
2018-05-23T11:07:35.048Z,3.87
2018-05-23T11:10:02.763Z,3.30
2018-05-23T11:12:31.063Z,4.07
2018-05-23T11:14:59.620Z,3.57
2018-05-23T11:17:27.445Z,3.77
2018-05-23T11:19:55.172Z,4.07
2018-05-23T11:22:23.748Z,3.77
2018-05-23T11:24:51.478Z,3.43
2018-05-23T11:27:19.055Z,4.27
2018-05-23T11:29:46.648Z,3.83
2018-05-23T11:32:14.040Z,3.30
2018-05-23T11:34:41.518Z,4.20
2018-05-23T11:37:09.001Z,3.53
2018-05-23T11:39:36.544Z,4.17
2018-05-23T11:42:05.767Z,4.47
2018-05-23T11:44:33.292Z,3.80
2018-05-23T11:47:01.726Z,3.40
2018-05-23T11:49:29.355Z,4.07
2018-05-23T11:51:57.844Z,3.57
2018-05-23T11:54:25.743Z,3.70
2018-05-23T11:56:53.319Z,3.53
2018-05-23T11:59:21.832Z,3.20
2018-05-23T12:01:50.480Z,3.43
2018-05-23T12:04:17.907Z,3.17
2018-05-23T12:06:45.443Z,3.43
2018-05-23T12:09:12.940Z,3.17
2018-05-23T12:11:40.470Z,3.70
2018-05-23T12:14:08.031Z,3.17
2018-05-23T12:16:36.296Z,3.10
2018-05-23T12:19:03.776Z,3.07
2018-05-23T12:21:31.640Z,3.40
2018-05-23T12:24:00.222Z,3.80
2018-05-23T12:26:28.701Z,3.00
2018-05-23T12:28:56.353Z,3.60
2018-05-23T12:31:24.056Z,3.43
2018-05-23T12:33:51.704Z,3.27
2018-05-23T12:36:19.474Z,3.97
2018-05-23T12:38:47.867Z,3.10
2018-05-23T12:41:15.469Z,3.20
2018-05-23T12:43:48.034Z,3.20
2018-05-23T12:46:15.688Z,2.60
2018-05-23T12:48:44.009Z,3.13
2018-05-23T12:51:11.554Z,3.53
2018-05-23T12:53:39.064Z,2.83
2018-05-23T12:56:07.328Z,3.50
2018-05-23T12:58:34.889Z,3.50
2018-05-23T13:01:02.523Z,3.43
2018-05-23T13:03:30.170Z,3.30
2018-05-23T13:05:58.307Z,3.20
2018-05-23T13:08:26.902Z,3.13
2018-05-23T13:10:55.993Z,3.33
2018-05-23T13:13:24.299Z,3.23
2018-05-23T13:15:52.703Z,3.30
2018-05-23T13:18:29.396Z,3.50
2018-05-23T13:20:57.244Z,2.90
2018-05-23T13:23:25.150Z,2.83
2018-05-23T13:25:52.845Z,3.37
2018-05-23T13:28:20.344Z,3.00
2018-05-23T13:30:48.612Z,3.43
2018-05-23T13:33:16.107Z,3.50
2018-05-23T13:35:43.644Z,3.60
2018-05-23T13:38:11.158Z,3.37
2018-05-23T13:40:38.713Z,3.40
2018-05-23T13:43:06.429Z,3.60
2018-05-23T13:45:34.204Z,3.50
2018-05-23T13:48:01.958Z,3.93
2018-05-23T13:50:29.645Z,4.00
2018-05-23T13:52:57.483Z,3.53
2018-05-23T13:55:25.481Z,3.20
2018-05-23T13:57:53.497Z,4.20
2018-05-23T14:00:21.139Z,3.27
2018-05-23T14:02:48.634Z,3.67
2018-05-23T14:05:16.186Z,3.17
2018-05-23T14:07:44.498Z,3.70
2018-05-23T14:10:12.220Z,3.60
2018-05-23T14:12:39.868Z,3.40
2018-05-23T14:15:08.316Z,3.73
2018-05-23T14:17:35.927Z,3.00
2018-05-23T14:20:03.646Z,3.00
2018-05-23T14:22:31.256Z,3.03
2018-05-23T14:24:59.073Z,3.20
2018-05-23T14:27:26.781Z,2.93
2018-05-23T14:29:54.606Z,3.57
2018-05-23T14:32:26.782Z,2.90
2018-05-23T14:34:54.700Z,3.50
2018-05-23T14:37:22.368Z,2.90
2018-05-23T14:39:49.869Z,2.80
2018-05-23T14:42:17.482Z,2.73
2018-05-23T14:44:45.080Z,3.03
2018-05-23T14:47:12.652Z,3.43
2018-05-23T14:49:40.156Z,2.87
2018-05-23T14:52:07.660Z,2.90
2018-05-23T14:54:35.937Z,2.77
2018-05-23T14:57:03.544Z,3.50
2018-05-23T14:59:31.190Z,2.73
2018-05-23T15:01:59.032Z,2.60
2018-05-23T15:04:27.191Z,2.83
2018-05-23T15:06:55.033Z,2.60
2018-05-23T15:09:22.621Z,2.93
2018-05-23T15:11:50.268Z,2.63
2018-05-23T15:14:18.771Z,3.10
2018-05-23T15:16:46.371Z,3.07
2018-05-23T15:19:13.905Z,3.20
2018-05-23T15:21:41.425Z,2.83
2018-05-23T15:24:08.944Z,2.83
2018-05-23T15:26:36.504Z,2.50
2018-05-23T15:29:04.020Z,2.87
2018-05-23T15:31:31.730Z,3.23
2018-05-23T15:34:00.218Z,2.93
2018-05-23T15:36:28.848Z,3.10
2018-05-23T15:38:56.727Z,3.10
2018-05-23T15:41:24.431Z,3.00
2018-05-23T15:43:52.764Z,3.53
2018-05-23T15:46:21.085Z,2.90
2018-05-23T15:48:48.585Z,2.87
2018-05-23T15:51:16.356Z,3.20
2018-05-23T15:53:43.828Z,3.20
2018-05-23T15:56:12.133Z,2.80
2018-05-23T15:58:40.430Z,2.90
2018-05-23T16:01:08.712Z,3.07
2018-05-23T16:03:36.224Z,3.30
2018-05-23T16:06:04.548Z,3.30
2018-05-23T16:08:32.204Z,3.10
2018-05-23T16:10:59.912Z,3.13
2018-05-23T16:13:28.449Z,3.50
2018-05-23T16:15:56.199Z,2.70
2018-05-23T16:18:24.707Z,2.93
2018-05-23T16:20:53.074Z,3.67
2018-05-23T16:23:20.592Z,3.70
2018-05-23T16:25:48.349Z,2.97
2018-05-23T16:28:16.127Z,3.07
2018-05-23T16:30:43.741Z,2.80
2018-05-23T16:33:11.233Z,3.37
2018-05-23T16:35:38.732Z,3.50
2018-05-23T16:38:06.290Z,3.40
2018-05-23T16:40:33.712Z,4.03
2018-05-23T16:43:01.254Z,3.23
2018-05-23T16:45:28.811Z,3.37
2018-05-23T16:47:56.647Z,3.03
2018-05-23T16:50:25.248Z,3.30
2018-05-23T16:52:52.904Z,3.30
2018-05-23T16:55:20.496Z,3.47
2018-05-23T16:57:48.120Z,4.10
2018-05-23T17:00:15.719Z,3.70
2018-05-23T17:02:43.203Z,3.13
2018-05-23T17:05:10.683Z,3.77
2018-05-23T17:07:38.167Z,2.97
2018-05-23T17:10:05.647Z,3.00
2018-05-23T17:12:33.308Z,3.27
2018-05-23T17:15:00.790Z,3.20
2018-05-23T17:17:28.518Z,2.90
2018-05-23T17:19:56.941Z,2.80
2018-05-23T17:22:25.736Z,3.03
2018-05-23T17:24:54.503Z,3.20
2018-05-23T17:27:22.109Z,3.07
2018-05-23T17:29:49.631Z,3.00
2018-05-23T17:32:17.203Z,3.30
2018-05-23T17:34:44.714Z,3.20
2018-05-23T17:37:12.280Z,3.90
2018-05-23T17:39:39.748Z,4.27
2018-05-23T17:42:07.223Z,4.27
2018-05-23T17:44:34.707Z,4.40
2018-05-23T17:47:02.387Z,4.50
2018-05-23T17:49:30.104Z,4.87
2018-05-23T17:51:57.816Z,4.73
2018-05-23T17:54:25.807Z,5.40
2018-05-23T17:56:54.584Z,5.13
2018-05-23T17:59:22.120Z,4.93
2018-05-23T18:01:49.616Z,6.23
2018-05-23T18:04:17.099Z,4.80
2018-05-23T18:06:44.569Z,4.37
2018-05-23T18:09:12.047Z,4.07
2018-05-23T18:11:39.515Z,3.40
2018-05-23T18:14:06.996Z,3.17
2018-05-23T18:16:36.460Z,3.60
2018-05-23T18:19:03.879Z,2.47
2018-05-23T18:21:31.520Z,1.93
2018-05-23T18:23:59.086Z,2.17
2018-05-23T18:26:27.469Z,2.10
2018-05-23T18:28:56.166Z,2.20
2018-05-23T18:31:23.797Z,2.30
2018-05-23T18:33:51.426Z,2.73
2018-05-23T18:36:18.963Z,2.63
2018-05-23T18:38:46.475Z,2.57
2018-05-23T18:41:13.951Z,2.83
2018-05-23T18:43:42.195Z,2.60
2018-05-23T18:46:09.703Z,3.10
2018-05-23T18:48:37.184Z,2.90
2018-05-23T18:51:05.423Z,3.00
2018-05-23T18:53:33.026Z,3.10
2018-05-23T18:56:01.371Z,2.90
2018-05-23T18:58:29.747Z,3.13
2018-05-23T19:00:57.351Z,3.10
2018-05-23T19:03:25.070Z,3.10
2018-05-23T19:05:53.462Z,3.23
2018-05-23T19:08:20.950Z,3.17
2018-05-23T19:10:48.517Z,3.50
2018-05-23T19:13:16.148Z,2.97
2018-05-23T19:15:43.644Z,3.03
2018-05-23T19:18:11.119Z,3.33
2018-05-23T19:20:38.595Z,3.20
2018-05-23T19:23:06.083Z,3.10
2018-05-23T19:25:33.564Z,3.00
2018-05-23T19:28:01.063Z,2.97
2018-05-23T19:30:28.555Z,3.30
2018-05-23T19:32:56.346Z,3.50
2018-05-23T19:35:24.562Z,3.60
2018-05-23T19:37:52.095Z,3.47
2018-05-23T19:40:19.567Z,2.93
2018-05-23T19:42:47.047Z,3.20
2018-05-23T19:45:16.069Z,3.17
2018-05-23T19:47:44.324Z,3.00
2018-05-23T19:50:11.807Z,3.30
2018-05-23T19:52:39.358Z,3.07
2018-05-23T19:55:06.791Z,2.93
2018-05-23T19:57:34.268Z,3.47
2018-05-23T20:00:02.603Z,3.60
2018-05-23T20:02:30.295Z,3.57
2018-05-23T20:04:58.145Z,3.63
2018-05-23T20:07:25.999Z,3.70
2018-05-23T20:09:56.213Z,4.33
2018-05-23T20:12:23.756Z,3.30
2018-05-23T20:14:51.440Z,3.87
2018-05-23T20:17:18.935Z,3.90
2018-05-23T20:19:46.419Z,4.13
2018-05-23T20:22:13.899Z,3.53
2018-05-23T20:24:41.383Z,3.37
2018-05-23T20:27:08.858Z,3.53
2018-05-23T20:29:36.363Z,3.83
2018-05-23T20:32:13.605Z,4.10
2018-05-23T20:34:41.083Z,3.37
2018-05-23T20:37:08.589Z,3.77
2018-05-23T20:39:36.068Z,3.87
2018-05-23T20:42:03.539Z,3.90
2018-05-23T20:44:31.074Z,3.80
2018-05-23T20:46:58.765Z,4.43
2018-05-23T20:49:26.596Z,3.80
2018-05-23T20:51:55.755Z,3.70
2018-05-23T20:54:23.376Z,3.23
2018-05-23T20:56:50.908Z,3.20
2018-05-23T20:59:18.534Z,3.30
2018-05-23T21:01:46.074Z,3.47
2018-05-23T21:04:13.565Z,3.73
2018-05-23T21:06:41.065Z,3.10
2018-05-23T21:09:08.576Z,3.73
2018-05-23T21:11:36.205Z,3.60
2018-05-23T21:14:03.617Z,3.30
2018-05-23T21:16:31.185Z,3.27
2018-05-23T21:18:58.871Z,3.53
2018-05-23T21:21:26.712Z,3.27
2018-05-23T21:23:54.418Z,3.80
2018-05-23T21:26:22.025Z,3.03
2018-05-23T21:28:49.609Z,3.93
2018-05-23T21:31:18.012Z,3.17
2018-05-23T21:33:45.544Z,3.70
2018-05-23T21:36:16.996Z,3.33
2018-05-23T21:38:44.472Z,3.30
2018-05-23T21:41:12.756Z,3.43
2018-05-23T21:43:55.191Z,3.53
2018-05-23T21:46:22.796Z,3.87
2018-05-23T21:48:50.292Z,3.43
2018-05-23T21:51:17.788Z,3.37
2018-05-23T21:53:45.308Z,3.33
2018-05-23T21:56:25.709Z,4.00
2018-05-23T21:58:53.252Z,3.80
2018-05-23T22:01:21.008Z,4.27
2018-05-23T22:03:48.613Z,3.83
2018-05-23T22:06:16.272Z,3.87
2018-05-23T22:08:43.929Z,4.33
2018-05-23T22:11:11.456Z,3.60
2018-05-23T22:13:38.948Z,3.67
2018-05-23T22:16:07.269Z,3.73
2018-05-23T22:18:35.531Z,4.00
2018-05-23T22:21:03.241Z,4.03
2018-05-23T22:23:30.835Z,4.00
2018-05-23T22:25:59.472Z,3.07
2018-05-23T22:28:27.352Z,3.57
2018-05-23T22:30:56.006Z,3.30
2018-05-23T22:33:23.648Z,3.63
2018-05-23T22:35:51.364Z,3.63
2018-05-23T22:38:18.941Z,3.87
2018-05-23T22:40:46.524Z,3.37
2018-05-23T22:43:14.853Z,3.60
2018-05-23T22:45:43.204Z,3.17
2018-05-23T22:48:10.789Z,4.13
2018-05-23T22:50:38.350Z,3.43
2018-05-23T22:53:08.644Z,4.30
2018-05-23T22:55:36.160Z,3.60
2018-05-23T22:58:03.684Z,3.70
2018-05-23T23:00:31.293Z,3.20
2018-05-23T23:02:59.020Z,3.90
2018-05-23T23:05:26.721Z,4.00
2018-05-23T23:07:54.559Z,3.83
2018-05-23T23:10:22.115Z,4.00
2018-05-23T23:12:49.616Z,4.33
2018-05-23T23:15:17.302Z,4.30
2018-05-23T23:17:44.867Z,3.13
2018-05-23T23:20:12.484Z,3.60
2018-05-23T23:22:40.096Z,3.47
2018-05-23T23:25:07.625Z,3.87
2018-05-23T23:27:35.167Z,3.67
2018-05-23T23:30:04.366Z,4.43
2018-05-23T23:32:32.725Z,3.67
2018-05-23T23:35:00.352Z,3.50
2018-05-23T23:37:28.270Z,3.80
2018-05-23T23:39:56.109Z,3.40
2018-05-23T23:42:24.704Z,4.10
2018-05-23T23:44:52.276Z,3.73
2018-05-23T23:47:19.930Z,3.83
2018-05-23T23:49:48.377Z,3.53
2018-05-23T23:52:16.033Z,3.60
2018-05-23T23:54:43.687Z,3.40
2018-05-23T23:57:11.895Z,3.47
2018-05-23T23:59:40.189Z,4.13
